Time;durP1;ratioP1;P1;durP2;ratioP2;P2;SDS_P1;SDS_P2;PMS_P1;PMS_P2;Temp;Humidity;BMP_temperature;BMP_pressure;BME280_temperature;BME280_humidity;BME280_pressure;Samples;Min_cycle;Max_cycle;Signal;HPM_P1;HPM_P2
2022/06/08 00:02:22;;;;;;;26.02;23.52;;;;;;;15.34;83.45;101008.56;5078383;28;20111;-64
2022/06/08 00:04:48;;;;;;;27.30;24.80;;;;;;;15.32;83.01;101001.84;5085584;28;20024;-64
2022/06/08 00:07:13;;;;;;;27.58;24.85;;;;;;;15.29;83.43;101000.34;5066819;28;20031;-69
2022/06/08 00:09:39;;;;;;;27.70;25.13;;;;;;;15.30;83.30;101001.97;5082841;28;20810;-64
2022/06/08 00:12:05;;;;;;;27.75;25.10;;;;;;;15.29;83.95;101000.34;5084100;28;20430;-65
2022/06/08 00:14:30;;;;;;;28.60;25.90;;;;;;;15.23;83.92;101005.38;5083265;28;20036;-65
2022/06/08 00:16:56;;;;;;;28.10;25.48;;;;;;;15.25;84.06;101004.22;5085095;28;20023;-65
2022/06/08 00:19:21;;;;;;;29.48;26.48;;;;;;;15.25;84.32;100993.78;5083195;28;20495;-66
2022/06/08 00:21:47;;;;;;;29.58;26.73;;;;;;;15.25;84.41;101001.63;5085109;28;20035;-64
2022/06/08 00:24:12;;;;;;;31.33;28.23;;;;;;;15.21;84.58;100989.84;5086031;28;20384;-64
2022/06/08 00:26:37;;;;;;;30.95;28.02;;;;;;;15.22;84.88;100998.50;5082984;28;20058;-64
2022/06/08 00:29:04;;;;;;;29.38;26.67;;;;;;;15.21;84.68;100987.22;5063450;28;20115;-66
2022/06/08 00:31:29;;;;;;;30.70;27.80;;;;;;;15.21;85.04;100995.06;5082632;28;20518;-65
2022/06/08 00:33:55;;;;;;;29.88;27.00;;;;;;;15.22;84.51;100988.88;5074483;28;20024;-65
2022/06/08 00:36:20;;;;;;;30.77;27.73;;;;;;;15.19;85.33;100983.94;5078813;28;20016;-64
2022/06/08 00:38:45;;;;;;;30.63;27.77;;;;;;;15.18;84.88;100982.28;5083144;28;20028;-64
2022/06/08 00:41:38;;;;;;;30.88;28.08;;;;;;;15.20;85.24;100974.31;5089711;28;20476;-65
2022/06/08 00:44:11;;;;;;;30.17;27.27;;;;;;;15.14;84.92;100970.53;5083016;28;20073;-66
2022/06/08 00:46:37;;;;;;;31.52;28.50;;;;;;;15.08;85.25;100958.91;5074971;28;20028;-66
2022/06/08 00:49:18;;;;;;;31.55;28.55;;;;;;;14.99;85.67;100957.16;5086803;28;20028;-65
2022/06/08 00:51:44;;;;;;;30.85;27.95;;;;;;;15.01;86.06;100967.47;5086371;28;20035;-67
2022/06/08 00:54:16;;;;;;;32.70;29.42;;;;;;;15.04;85.84;100964.56;5089280;28;20404;-65
2022/06/08 00:56:47;;;;;;;31.70;28.70;;;;;;;15.01;85.80;100959.63;5087639;28;20194;-66
2022/06/08 00:59:13;;;;;;;31.15;28.23;;;;;;;15.03;85.77;100960.31;5081335;28;20375;-65
2022/06/08 01:01:38;;;;;;;32.47;29.38;;;;;;;15.02;85.42;100956.03;5077107;28;20027;-65
2022/06/08 01:04:14;;;;;;;32.65;29.52;;;;;;;14.96;85.40;100943.59;5056811;28;20025;-66
2022/06/08 01:06:44;;;;;;;33.13;29.90;;;;;;;14.97;85.92;100958.31;5082740;28;20028;-64
2022/06/08 01:09:23;;;;;;;33.83;30.52;;;;;;;14.91;85.99;100953.66;5084293;28;20137;-65
2022/06/08 01:11:49;;;;;;;33.75;30.58;;;;;;;14.88;86.33;100955.59;5085993;28;20059;-67
2022/06/08 01:14:17;;;;;;;34.30;31.02;;;;;;;14.91;86.37;100958.88;5086628;28;20023;-71
2022/06/08 01:16:50;;;;;;;35.88;32.33;;;;;;;14.93;86.47;100947.31;5081005;28;20028;-65
2022/06/08 01:19:16;;;;;;;36.17;32.58;;;;;;;14.90;86.54;100941.56;5067850;28;20150;-65
2022/06/08 01:21:41;;;;;;;37.58;33.97;;;;;;;14.87;87.10;100943.53;5076099;28;20028;-66
2022/06/08 01:24:10;;;;;;;35.90;32.30;;;;;;;14.92;86.97;100939.66;5072817;28;20024;-65
2022/06/08 01:26:44;;;;;;;35.80;32.30;;;;;;;14.92;86.89;100944.88;5082819;28;20020;-66
2022/06/08 01:29:22;;;;;;;36.55;33.15;;;;;;;14.94;86.97;100932.47;5088908;28;20027;-65
2022/06/08 01:32:03;;;;;;;35.25;31.85;;;;;;;14.94;86.63;100932.47;5074259;28;20047;-65
2022/06/08 01:34:48;;;;;;;36.30;32.80;;;;;;;14.93;86.90;100926.44;5087885;28;20024;-64
2022/06/08 01:37:36;;;;;;;35.55;32.03;;;;;;;14.85;87.01;100918.50;5077442;28;20088;-68
2022/06/08 01:40:30;;;;;;;35.83;32.30;;;;;;;14.76;87.51;100915.03;5078796;28;20042;-65
2022/06/08 01:43:15;;;;;;;36.00;32.53;;;;;;;14.80;87.04;100911.16;5077673;28;20093;-65
2022/06/08 01:45:52;;;;;;;34.83;31.48;;;;;;;14.77;87.02;100906.22;5079328;28;20374;-67
2022/06/08 01:48:56;;;;;;;35.63;32.13;;;;;;;14.81;86.79;100902.34;5069067;28;20032;-64
2022/06/08 01:51:27;;;;;;;36.33;32.85;;;;;;;14.71;87.52;100896.38;5079429;28;20043;-64
2022/06/08 01:54:17;;;;;;;37.10;33.50;;;;;;;14.68;87.49;100888.88;5082116;28;20039;-65
2022/06/08 01:57:09;;;;;;;36.55;32.95;;;;;;;14.66;87.28;100888.19;5083937;28;20126;-68
2022/06/08 01:59:54;;;;;;;36.45;32.85;;;;;;;14.65;87.21;100873.47;5085219;28;20024;-65
2022/06/08 02:02:21;;;;;;;36.63;32.95;;;;;;;14.62;86.91;100881.59;5081567;28;20028;-64
2022/06/08 02:04:57;;;;;;;35.67;32.17;;;;;;;14.62;87.59;100876.38;5083374;28;20016;-68
2022/06/08 02:07:41;;;;;;;37.42;33.85;;;;;;;14.58;87.33;100875.06;5079223;28;20039;-64
2022/06/08 02:10:21;;;;;;;36.30;32.78;;;;;;;14.59;87.38;100866.25;5076971;28;20042;-66
2022/06/08 02:12:53;;;;;;;36.00;32.40;;;;;;;14.47;87.52;100867.47;5082416;28;20575;-64
2022/06/08 02:15:27;;;;;;;36.25;32.75;;;;;;;14.48;87.37;100869.91;5083801;28;20039;-65
2022/06/08 02:17:56;;;;;;;37.25;33.55;;;;;;;14.44;87.58;100865.91;5082214;28;20032;-65
2022/06/08 02:20:33;;;;;;;36.78;33.28;;;;;;;14.43;87.34;100871.28;5080676;28;20115;-64
2022/06/08 02:23:11;;;;;;;37.13;33.55;;;;;;;14.48;87.47;100858.66;5077226;28;20035;-65
2022/06/08 02:25:45;;;;;;;37.38;33.85;;;;;;;14.43;87.24;100856.47;5078625;28;20108;-64
2022/06/08 02:28:17;;;;;;;36.80;33.30;;;;;;;14.40;87.93;100845.50;5075385;28;20031;-64
2022/06/08 02:30:58;;;;;;;37.55;34.15;;;;;;;14.37;87.89;100845.81;5086848;28;20028;-66
2022/06/08 02:36:50;;;;;;;37.38;33.78;;;;;;;14.40;87.82;100829.84;5082346;28;20161;-64
2022/06/08 02:39:30;;;;;;;38.55;34.90;;;;;;;14.33;87.78;100835.66;5026982;28;20448;-66
2022/06/08 02:42:03;;;;;;;38.95;35.28;;;;;;;14.29;87.86;100829.09;5068402;28;20111;-64
2022/06/08 02:44:31;;;;;;;39.60;35.80;;;;;;;14.28;88.10;100822.25;5080184;28;20057;-65
2022/06/08 02:47:02;;;;;;;40.30;36.50;;;;;;;14.27;88.25;100825.81;5074461;28;20015;-67
2022/06/08 02:49:28;;;;;;;38.25;34.55;;;;;;;14.25;87.75;100821.72;5086499;28;20031;-65
2022/06/08 02:51:59;;;;;;;38.08;34.47;;;;;;;14.17;88.47;100825.09;5073178;28;20023;-65
2022/06/08 02:54:27;;;;;;;39.08;35.53;;;;;;;14.19;88.01;100817.91;5086736;28;20056;-67
2022/06/08 02:57:06;;;;;;;38.72;35.03;;;;;;;14.17;88.46;100814.66;5073897;28;20070;-66
2022/06/08 03:00:07;;;;;;;39.65;35.60;;;;;;;14.19;88.30;100814.50;5085862;28;20409;-68
2022/06/08 03:02:36;;;;;;;38.25;34.47;;;;;;;14.15;87.94;100815.75;5072764;28;20024;-65
2022/06/08 03:05:05;;;;;;;38.80;35.05;;;;;;;14.13;88.28;100815.09;5078648;28;20115;-64
2022/06/08 03:07:41;;;;;;;39.63;35.92;;;;;;;14.06;88.21;100807.03;5086606;28;20632;-65
2022/06/08 03:10:10;;;;;;;38.10;34.50;;;;;;;14.10;88.37;100803.16;5085145;28;20036;-64
2022/06/08 03:12:42;;;;;;;38.33;34.83;;;;;;;14.05;88.29;100795.78;5066816;28;20102;-64
2022/06/08 03:15:10;;;;;;;39.95;36.17;;;;;;;14.06;88.11;100807.03;5084841;28;20099;-65
2022/06/08 03:17:37;;;;;;;39.33;35.63;;;;;;;13.96;88.35;100795.84;5083597;28;20418;-65
2022/06/08 03:20:08;;;;;;;39.63;35.90;;;;;;;14.01;88.46;100804.06;5081639;28;20376;-65
2022/06/08 03:22:34;;;;;;;39.00;35.40;;;;;;;14.01;88.39;100801.44;5085074;28;20047;-66
2022/06/08 03:24:59;;;;;;;38.95;35.20;;;;;;;13.96;88.08;100793.25;5084120;28;20028;-69
2022/06/08 03:27:25;;;;;;;38.38;34.75;;;;;;;13.95;88.23;100799.44;5085071;28;20056;-64
2022/06/08 03:29:51;;;;;;;38.40;34.80;;;;;;;13.92;88.31;100792.72;5065438;28;20111;-65
2022/06/08 03:32:16;;;;;;;38.13;34.45;;;;;;;13.90;88.64;100788.63;5084063;28;20486;-65
2022/06/08 03:34:42;;;;;;;38.22;34.65;;;;;;;13.95;88.37;100794.22;5078230;28;20020;-64
2022/06/08 03:37:08;;;;;;;38.03;34.42;;;;;;;13.85;88.54;100783.03;5082773;28;20475;-66
2022/06/08 03:39:34;;;;;;;37.35;33.92;;;;;;;13.83;88.79;100785.78;5084795;28;20097;-65
2022/06/08 03:41:59;;;;;;;37.45;33.90;;;;;;;13.90;88.54;100788.63;5081810;28;20023;-67
2022/06/08 03:44:25;;;;;;;38.20;34.55;;;;;;;13.87;88.70;100791.50;5086205;28;20031;-64
2022/06/08 03:47:04;;;;;;;35.45;32.03;;;;;;;13.85;88.90;100783.03;5083284;28;20406;-65
2022/06/08 03:49:31;;;;;;;35.92;32.47;;;;;;;13.90;88.67;100796.44;5082126;28;20056;-65
2022/06/08 03:52:00;;;;;;;35.25;31.77;;;;;;;13.87;88.73;100789.72;5072492;28;20024;-65
2022/06/08 03:54:31;;;;;;;36.00;32.60;;;;;;;13.84;88.84;100786.59;5075814;28;20099;-66
2022/06/08 03:57:03;;;;;;;35.45;32.13;;;;;;;13.80;88.88;100792.09;5067514;28;20036;-64
2022/06/08 03:59:29;;;;;;;35.95;32.65;;;;;;;13.85;88.99;100788.25;5076394;28;20046;-65
2022/06/08 04:01:54;;;;;;;34.75;31.38;;;;;;;13.86;88.81;100800.31;5078148;28;20055;-64
2022/06/08 04:04:20;;;;;;;34.20;30.98;;;;;;;13.87;88.57;100796.72;5073603;28;20063;-65
2022/06/08 04:06:45;;;;;;;33.83;30.67;;;;;;;13.87;88.79;100801.94;5076865;28;20062;-65
2022/06/08 04:09:11;;;;;;;33.95;30.75;;;;;;;13.90;89.00;100801.66;5063375;28;20036;-65
2022/06/08 04:11:36;;;;;;;32.63;29.63;;;;;;;13.86;88.88;100805.50;5084578;28;20070;-64
2022/06/08 04:14:02;;;;;;;32.45;29.35;;;;;;;13.88;88.81;100806.19;5071056;28;20772;-64
2022/06/08 04:16:28;;;;;;;32.80;29.80;;;;;;;13.87;89.10;100807.97;5082910;28;20024;-65
2022/06/08 04:18:54;;;;;;;32.03;29.02;;;;;;;13.81;89.08;100798.94;5067685;28;20468;-64
2022/06/08 04:21:20;;;;;;;32.22;29.25;;;;;;;13.84;89.13;100799.63;5078118;28;20020;-64
2022/06/08 04:23:47;;;;;;;31.50;28.60;;;;;;;13.80;88.98;100781.66;5082026;28;20036;-65
2022/06/08 04:26:14;;;;;;;31.55;28.65;;;;;;;13.82;89.33;100779.75;5071640;28;20055;-65
2022/06/08 04:28:41;;;;;;;30.23;27.42;;;;;;;13.86;89.46;100789.88;5065326;28;20024;-65
2022/06/08 04:31:07;;;;;;;29.73;27.08;;;;;;;13.89;89.64;100784.38;5077595;28;20028;-64
2022/06/08 04:33:33;;;;;;;29.58;26.88;;;;;;;13.92;89.71;100794.50;5083271;28;20525;-64
2022/06/08 04:35:59;;;;;;;28.98;26.27;;;;;;;13.94;89.85;100787.38;5080370;28;20190;-66
2022/06/08 04:38:25;;;;;;;28.63;25.92;;;;;;;13.93;89.89;100786.53;5080107;28;20068;-64
2022/06/08 04:40:50;;;;;;;27.55;24.95;;;;;;;13.98;89.48;100783.47;5083826;28;20035;-64
2022/06/08 04:43:17;;;;;;;26.58;24.08;;;;;;;13.95;90.01;100781.19;5081735;28;20024;-64
2022/06/08 04:45:43;;;;;;;25.63;23.23;;;;;;;14.00;90.26;100781.56;5078204;28;20518;-64
2022/06/08 04:48:09;;;;;;;24.25;21.95;;;;;;;14.04;89.90;100773.25;5082578;28;20024;-64
2022/06/08 04:50:34;;;;;;;24.67;22.30;;;;;;;14.04;90.82;100777.66;5076776;28;20036;-65
2022/06/08 04:53:01;;;;;;;23.23;21.02;;;;;;;14.14;90.37;100775.81;5080523;28;20054;-65
2022/06/08 04:55:27;;;;;;;22.88;20.67;;;;;;;14.17;90.69;100778.13;5065487;28;20081;-64
2022/06/08 04:57:52;;;;;;;22.40;20.30;;;;;;;14.20;90.08;100777.81;5084149;28;20027;-64
2022/06/08 05:00:21;;;;;;;22.27;20.17;;;;;;;14.20;90.78;100772.59;5081400;28;20046;-64
2022/06/08 05:02:48;;;;;;;22.10;20.00;;;;;;;14.22;90.79;100770.69;5083284;28;20027;-64
2022/06/08 05:05:20;;;;;;;21.77;19.70;;;;;;;14.31;90.46;100767.16;5088607;28;20106;-64
2022/06/08 05:07:47;;;;;;;21.00;19.08;;;;;;;14.36;90.29;100761.50;5087230;28;20039;-65
2022/06/08 05:10:13;;;;;;;21.17;19.20;;;;;;;14.37;90.31;100762.31;5088778;28;20078;-64
2022/06/08 05:12:39;;;;;;;20.63;18.52;;;;;;;14.41;90.33;100768.88;5084794;28;20048;-64
2022/06/08 05:15:12;;;;;;;21.40;19.40;;;;;;;14.37;90.50;100752.69;5081773;28;20168;-67
2022/06/08 05:17:38;;;;;;;20.58;18.60;;;;;;;14.46;90.60;100764.84;5074230;28;20021;-64
2022/06/08 05:20:05;;;;;;;20.40;18.35;;;;;;;14.45;91.14;100754.53;5087580;28;20142;-65
2022/06/08 05:22:31;;;;;;;20.02;18.10;;;;;;;14.50;90.49;100752.31;5075479;28;20520;-66
2022/06/08 05:24:57;;;;;;;19.02;17.27;;;;;;;14.50;90.73;100739.25;5078445;28;20043;-67
2022/06/08 05:27:23;;;;;;;18.70;16.90;;;;;;;14.56;90.55;100738.66;5075494;28;20135;-65
2022/06/08 05:29:48;;;;;;;18.33;16.42;;;;;;;14.55;90.49;100735.22;5078975;28;20151;-70
2022/06/08 05:32:13;;;;;;;18.70;16.77;;;;;;;14.58;90.96;100734.94;5063397;28;20496;-69
2022/06/08 05:34:39;;;;;;;18.23;16.52;;;;;;;14.60;91.15;100730.38;5074527;28;20028;-64
2022/06/08 05:37:04;;;;;;;17.58;15.80;;;;;;;14.67;90.47;100727.97;5084802;28;20364;-64
2022/06/08 05:39:29;;;;;;;16.92;15.40;;;;;;;14.68;90.75;100723.56;5066238;28;20020;-66
2022/06/08 05:41:55;;;;;;;16.60;14.90;;;;;;;14.72;90.51;100719.66;5087067;28;20424;-64
2022/06/08 05:44:21;;;;;;;16.55;14.85;;;;;;;14.74;91.08;100718.56;5085191;28;20037;-65
2022/06/08 05:46:50;;;;;;;15.38;13.88;;;;;;;14.79;91.06;100711.06;5078627;28;20020;-67
2022/06/08 05:49:17;;;;;;;15.80;14.07;;;;;;;14.85;90.34;100710.47;5064798;28;20024;-64
2022/06/08 05:51:43;;;;;;;15.23;13.60;;;;;;;14.91;90.24;100702.94;5081753;28;20055;-64
2022/06/08 05:54:09;;;;;;;14.45;13.13;;;;;;;14.90;90.71;100696.91;5073459;28;20492;-66
2022/06/08 05:56:35;;;;;;;14.80;13.40;;;;;;;14.95;90.41;100704.28;5073645;28;20024;-64
2022/06/08 05:59:00;;;;;;;13.70;12.30;;;;;;;14.98;90.11;100706.59;5071949;28;20035;-65
2022/06/08 06:01:26;;;;;;;14.63;13.13;;;;;;;15.01;90.00;100703.66;5065362;28;20024;-65
2022/06/08 06:03:52;;;;;;;13.52;12.13;;;;;;;15.04;90.09;100692.91;5068648;28;20481;-66
2022/06/08 06:06:17;;;;;;;12.82;11.52;;;;;;;15.03;89.68;100691.28;5074722;28;20028;-64
2022/06/08 06:08:45;;;;;;;13.48;11.98;;;;;;;15.15;89.75;100695.25;5075464;28;20535;-66
2022/06/08 06:11:13;;;;;;;12.32;11.13;;;;;;;15.17;89.85;100693.28;5081006;28;20052;-69
2022/06/08 06:13:39;;;;;;;13.57;12.20;;;;;;;15.19;89.65;100691.31;5080196;28;20020;-69
2022/06/08 06:16:05;;;;;;;12.98;11.68;;;;;;;15.22;89.42;100679.75;5086331;28;20040;-64
2022/06/08 06:18:30;;;;;;;13.85;12.35;;;;;;;15.29;89.40;100681.56;5084229;28;20094;-67
2022/06/08 06:20:55;;;;;;;13.27;11.57;;;;;;;15.30;88.89;100675.34;5077527;28;20059;-67
2022/06/08 06:23:21;;;;;;;13.10;11.85;;;;;;;15.32;89.37;100676.03;5086637;28;20034;-64
2022/06/08 06:25:47;;;;;;;12.75;11.45;;;;;;;15.39;89.41;100681.41;5085079;28;20451;-67
2022/06/08 06:28:12;;;;;;;12.88;10.93;;;;;;;15.41;88.78;100682.06;5086673;28;20245;-65
2022/06/08 06:30:38;;;;;;;12.10;10.90;;;;;;;15.45;88.21;100682.56;5075144;28;20078;-64
2022/06/08 06:33:03;;;;;;;11.52;10.43;;;;;;;15.44;87.99;100673.91;5084937;28;20505;-65
2022/06/08 06:35:31;;;;;;;11.20;10.10;;;;;;;15.47;88.48;100662.31;5087029;28;20502;-64
2022/06/08 06:37:57;;;;;;;11.93;10.73;;;;;;;15.53;88.17;100677.34;5079563;28;20483;-64
2022/06/08 06:40:22;;;;;;;11.05;10.05;;;;;;;15.54;87.10;100671.13;5086774;28;20036;-68
2022/06/08 06:42:48;;;;;;;13.10;10.45;;;;;;;15.61;87.73;100672.16;5083317;28;20031;-64
2022/06/08 06:45:14;;;;;;;11.05;9.40;;;;;;;15.65;87.87;100665.63;5061596;28;20024;-65
2022/06/08 06:47:40;;;;;;;10.43;9.25;;;;;;;15.61;87.08;100664.31;5068232;28;20399;-64
2022/06/08 06:50:08;;;;;;;10.75;9.25;;;;;;;15.69;86.62;100672.19;5086343;28;20031;-65
2022/06/08 06:52:34;;;;;;;10.20;9.20;;;;;;;15.72;86.04;100661.41;5067648;28;20474;-64
2022/06/08 06:54:59;;;;;;;11.30;9.63;;;;;;;15.74;86.19;100675.13;5081263;28;20016;-66
2022/06/08 06:57:25;;;;;;;11.60;9.70;;;;;;;15.76;86.18;100675.78;5085268;28;20028;-64
2022/06/08 06:59:50;;;;;;;10.98;9.82;;;;;;;15.81;86.40;100681.34;5085615;28;20119;-66
2022/06/08 07:02:19;;;;;;;11.35;9.35;;;;;;;15.86;86.57;100676.44;5082184;28;20468;-69
2022/06/08 07:04:44;;;;;;;10.18;9.05;;;;;;;15.89;86.28;100673.50;5084013;28;20028;-64
2022/06/08 07:07:10;;;;;;;11.63;10.02;;;;;;;15.91;86.05;100663.69;5077293;28;20097;-64
2022/06/08 07:09:36;;;;;;;10.73;9.48;;;;;;;15.98;86.01;100668.28;5080055;28;20034;-66
2022/06/08 07:12:03;;;;;;;10.35;9.20;;;;;;;16.07;86.10;100659.44;5086327;28;20052;-64
2022/06/08 07:14:28;;;;;;;9.30;7.20;;;;;;;16.08;84.13;100661.06;5075357;28;20038;-65
2022/06/08 07:16:54;;;;;;;10.25;8.48;;;;;;;16.08;84.49;100650.63;5081815;28;20139;-66
2022/06/08 07:19:20;;;;;;;9.20;8.25;;;;;;;16.12;84.79;100651.94;5080715;28;20027;-64
2022/06/08 07:21:46;;;;;;;9.43;8.32;;;;;;;16.22;85.00;100652.53;5074355;28;20031;-64
2022/06/08 07:24:18;;;;;;;9.30;8.10;;;;;;;16.26;85.08;100656.47;5085511;28;20120;-66
2022/06/08 07:26:43;;;;;;;10.45;8.10;;;;;;;16.24;84.26;100640.13;5084328;28;20039;-64
2022/06/08 07:29:09;;;;;;;9.88;7.90;;;;;;;16.29;83.19;100652.72;5082491;28;20102;-65
2022/06/08 07:31:34;;;;;;;9.32;7.43;;;;;;;16.27;82.88;100645.00;5082245;28;20028;-67
2022/06/08 07:34:01;;;;;;;9.82;7.70;;;;;;;16.30;83.61;100638.66;5084721;28;20107;-70
2022/06/08 07:36:27;;;;;;;10.23;7.43;;;;;;;16.32;82.95;100642.72;5070712;28;20075;-65
2022/06/08 07:38:52;;;;;;;9.43;7.53;;;;;;;16.42;82.99;100634.69;5074313;28;20036;-64
2022/06/08 07:41:18;;;;;;;8.02;6.82;;;;;;;16.50;83.06;100639.06;5067863;28;20085;-64
2022/06/08 07:43:43;;;;;;;8.43;7.40;;;;;;;16.54;83.06;100635.13;5064096;28;20024;-64
2022/06/08 07:46:09;;;;;;;8.68;7.20;;;;;;;16.64;83.24;100625.28;5076682;28;20040;-66
2022/06/08 07:51:19;;;;;;;9.07;6.85;;;;;;;16.74;82.01;100625.91;5085950;28;20027;-67
2022/06/08 07:53:44;;;;;;;9.55;6.40;;;;;;;16.81;81.48;100629.50;5085668;28;20032;-65
2022/06/08 07:56:09;;;;;;;9.30;6.95;;;;;;;16.94;82.56;100632.38;5084697;28;20361;-67
2022/06/08 07:58:36;;;;;;;9.82;7.00;;;;;;;17.10;81.50;100630.69;5085571;28;20036;-65
2022/06/08 08:01:01;;;;;;;9.45;6.97;;;;;;;17.20;81.50;100632.09;5067612;28;20380;-67
2022/06/08 08:03:27;;;;;;;9.10;6.90;;;;;;;17.28;80.34;100638.28;5079500;28;20032;-65
2022/06/08 08:05:53;;;;;;;9.50;6.63;;;;;;;17.24;79.90;100627.31;5080228;28;20078;-65
2022/06/08 08:08:19;;;;;;;9.13;6.90;;;;;;;17.30;79.75;100637.09;5085008;28;20093;-64
2022/06/08 08:10:45;;;;;;;9.55;7.63;;;;;;;17.34;79.83;100642.81;5085690;28;20040;-64
2022/06/08 08:13:12;;;;;;;10.75;7.63;;;;;;;17.43;80.12;100629.50;5084721;28;20062;-64
2022/06/08 08:15:39;;;;;;;10.60;7.03;;;;;;;17.62;79.79;100635.25;5084465;28;20093;-65
2022/06/08 08:18:04;;;;;;;9.15;6.53;;;;;;;17.76;79.70;100631.88;5084700;28;20035;-68
2022/06/08 08:20:31;;;;;;;8.65;5.82;;;;;;;17.80;78.45;100632.34;5084766;28;20024;-64
2022/06/08 08:22:57;;;;;;;9.20;6.10;;;;;;;17.88;78.09;100630.47;5076622;28;20081;-66
2022/06/08 08:25:24;;;;;;;10.57;5.88;;;;;;;17.94;77.83;100629.75;5075798;28;20047;-65
2022/06/08 08:27:50;;;;;;;8.77;5.68;;;;;;;17.95;76.86;100623.53;5084414;28;20431;-66
2022/06/08 08:30:19;;;;;;;7.55;5.20;;;;;;;17.98;77.07;100625.78;5073939;28;20025;-66
2022/06/08 08:32:44;;;;;;;9.10;5.03;;;;;;;18.01;77.04;100624.63;5074274;28;20108;-64
2022/06/08 08:35:11;;;;;;;9.75;5.07;;;;;;;17.99;76.98;100627.41;5085488;28;20110;-67
2022/06/08 08:37:37;;;;;;;10.32;5.30;;;;;;;17.97;77.36;100629.41;5085078;28;20031;-64
2022/06/08 08:40:05;;;;;;;10.00;5.50;;;;;;;18.01;77.59;100630.69;5085035;28;20028;-65
2022/06/08 08:42:31;;;;;;;9.68;4.80;;;;;;;18.02;77.16;100626.25;5085248;28;20024;-65
2022/06/08 08:45:04;;;;;;;8.32;4.90;;;;;;;17.99;76.77;100627.41;5086216;28;20031;-64
2022/06/08 08:48:02;;;;;;;7.57;4.70;;;;;;;17.99;77.59;100627.41;5083740;28;20467;-68
2022/06/08 08:50:53;;;;;;;8.68;5.00;;;;;;;17.93;77.55;100611.56;5083838;28;20099;-65
2022/06/08 08:53:36;;;;;;;7.60;5.20;;;;;;;17.95;77.39;100623.53;5085164;28;20032;-65
2022/06/08 08:56:12;;;;;;;9.82;5.60;;;;;;;17.94;77.12;100624.50;5084378;28;20039;-65
2022/06/08 08:58:41;;;;;;;9.60;5.35;;;;;;;17.88;76.98;100604.22;5073703;28;20048;-66
2022/06/08 09:01:18;;;;;;;7.93;4.55;;;;;;;18.00;77.21;100618.53;5086332;28;20032;-67
2022/06/08 09:03:48;;;;;;;10.65;4.50;;;;;;;17.95;76.47;100622.69;5080287;28;20099;-65
2022/06/08 09:06:26;;;;;;;7.80;4.63;;;;;;;17.91;76.74;100627.50;5083648;28;20051;-64
2022/06/08 09:09:00;;;;;;;8.82;4.60;;;;;;;17.98;76.47;100625.78;5074414;28;20035;-65
2022/06/08 09:11:34;;;;;;;7.93;5.10;;;;;;;17.96;76.64;100622.53;5087675;28;20082;-65
2022/06/08 09:14:24;;;;;;;10.95;4.47;;;;;;;17.96;76.95;100617.28;5078472;28;20106;-65
2022/06/08 09:17:11;;;;;;;8.88;4.72;;;;;;;17.93;76.29;100622.06;5066877;28;20645;-67
2022/06/08 09:19:43;;;;;;;8.03;4.63;;;;;;;18.02;76.07;100627.06;5083421;28;20093;-65
2022/06/08 09:22:08;;;;;;;8.27;4.28;;;;;;;18.10;76.91;100625.34;5070318;28;20391;-67
2022/06/08 09:24:53;;;;;;;6.88;4.35;;;;;;;18.10;76.49;100622.72;5069107;28;20028;-66
2022/06/08 09:27:31;;;;;;;8.95;4.20;;;;;;;18.01;76.11;100617.56;5087051;28;20024;-67
2022/06/08 09:29:56;;;;;;;;;;;;;;;18.16;76.95;100624.63;5082430;28;20051;-65
2022/06/08 09:32:46;;;;;;;9.70;4.27;;;;;;;18.11;76.50;100630.41;5083953;28;20363;-69
2022/06/08 09:35:17;;;;;;;10.80;4.72;;;;;;;18.08;75.54;100625.53;5070086;28;20524;-65
2022/06/08 09:37:44;;;;;;;8.57;4.10;;;;;;;18.11;75.72;100619.09;5077297;28;20046;-65
2022/06/08 09:41:00;;;;;;;8.80;4.18;;;;;;;18.12;75.20;100628.59;5070565;28;20028;-65
2022/06/08 09:43:29;;;;;;;10.35;4.35;;;;;;;18.14;75.90;100618.75;5075333;28;20063;-65
2022/06/08 09:46:00;;;;;;;7.95;4.70;;;;;;;18.04;75.04;100619.81;5084348;28;20529;-67
2022/06/08 09:51:39;;;;;;;8.38;4.38;;;;;;;17.99;75.43;100629.22;5087530;28;20043;-65
2022/06/08 09:54:32;;;;;;;8.88;4.30;;;;;;;18.05;75.73;100626.69;5088415;28;20032;-65
2022/06/08 09:57:08;;;;;;;7.97;3.60;;;;;;;18.07;74.74;100630.97;5075166;28;20157;-65
2022/06/08 09:59:38;;;;;;;9.30;3.88;;;;;;;18.01;73.63;100630.69;5073627;28;20043;-65
2022/06/08 10:02:31;;;;;;;6.40;3.45;;;;;;;17.97;74.35;100628.59;5087643;28;20069;-66
2022/06/08 10:04:56;;;;;;;7.35;3.38;;;;;;;17.89;73.63;100626.88;5087825;28;20072;-65
2022/06/08 10:07:57;;;;;;;7.07;3.20;;;;;;;17.94;74.58;100628.94;5079080;28;20561;-66
2022/06/08 10:10:41;;;;;;;7.50;3.33;;;;;;;17.95;73.44;100630.56;5085992;28;20456;-66
2022/06/08 10:13:36;;;;;;;7.97;2.80;;;;;;;17.83;72.82;100627.56;5080809;28;20024;-64
2022/06/08 10:16:10;;;;;;;9.82;2.45;;;;;;;17.61;71.71;100634.44;5083285;28;20032;-65
2022/06/08 10:18:48;;;;;;;7.50;2.58;;;;;;;17.63;72.50;100634.25;5080970;28;20028;-67
2022/06/08 10:21:22;;;;;;;7.60;2.87;;;;;;;17.56;73.30;100642.03;5069468;28;20468;-69
2022/06/08 10:24:18;;;;;;;8.85;3.00;;;;;;;17.41;74.38;100639.31;5082463;28;20035;-65
2022/06/08 10:26:52;;;;;;;9.68;2.90;;;;;;;17.45;75.07;100639.81;5073938;28;20042;-66
2022/06/08 10:29:40;;;;;;;9.23;2.40;;;;;;;17.38;75.35;100644.94;5084212;28;20024;-65
2022/06/08 10:32:24;;;;;;;;;;;;;;;17.56;75.20;100651.69;5078125;28;20020;-66
2022/06/08 10:34:56;;;;;;;6.53;2.70;;;;;;;17.13;76.94;100649.47;5077012;28;20462;-69
2022/06/08 10:37:41;;;;;;;11.20;2.97;;;;;;;17.11;77.51;100648.03;5071996;28;20028;-65
2022/06/08 10:40:09;;;;;;;7.35;3.00;;;;;;;17.05;79.24;100648.72;5080739;28;20028;-66
2022/06/08 10:42:41;;;;;;;8.80;3.10;;;;;;;16.92;79.26;100646.66;5063934;28;20077;-69
2022/06/08 10:45:26;;;;;;;9.80;3.30;;;;;;;16.93;80.01;100656.97;5083117;28;20027;-69
2022/06/08 10:48:01;;;;;;;7.97;3.25;;;;;;;16.83;81.07;100651.09;5068695;28;20036;-69
2022/06/08 10:50:44;;;;;;;9.52;3.20;;;;;;;16.85;81.37;100638.63;5084728;28;20025;-67
2022/06/08 10:56:28;;;;;;;11.10;3.80;;;;;;;16.65;82.91;100642.63;5078147;28;20059;-69
2022/06/08 10:58:57;;;;;;;9.60;3.50;;;;;;;16.62;83.00;100642.97;5080309;28;20068;-68
2022/06/08 11:01:41;;;;;;;;;;;;;;;16.93;80.91;100630.75;5085267;28;20024;-69
2022/06/08 11:04:26;;;;;;;9.80;3.92;;;;;;;16.84;82.48;100637.00;5085248;28;19959;-70
2022/06/08 11:06:54;;;;;;;9.85;4.03;;;;;;;16.64;84.48;100636.59;5086742;28;20042;-70
2022/06/08 11:09:42;;;;;;;8.75;3.95;;;;;;;16.76;83.86;100646.72;5086302;28;20024;-68
2022/06/08 11:12:11;;;;;;;8.75;4.38;;;;;;;16.82;83.62;100649.47;5080600;28;21377;-69
2022/06/08 11:14:48;;;;;;;7.82;4.35;;;;;;;16.85;83.66;100643.06;5079099;28;20031;-67
2022/06/08 11:17:35;;;;;;;8.98;4.72;;;;;;;16.82;83.22;100639.00;5062716;28;20060;-69
2022/06/08 11:20:47;;;;;;;10.23;4.70;;;;;;;16.86;83.28;100639.44;5085518;28;20032;-68
2022/06/08 11:23:16;;;;;;;9.13;3.78;;;;;;;16.64;83.81;100641.81;4980528;28;20034;-67
2022/06/08 11:25:50;;;;;;;11.48;4.00;;;;;;;16.67;83.38;100640.66;4982173;28;20529;-68
2022/06/08 11:28:24;;;;;;;10.23;3.67;;;;;;;16.62;84.25;100632.47;4983210;28;20046;-68
2022/06/08 11:30:51;;;;;;;8.50;3.20;;;;;;;16.60;83.85;100634.47;4981199;28;20117;-68
2022/06/08 11:33:19;;;;;;;8.10;3.70;;;;;;;16.49;84.37;100621.72;4983180;28;20041;-66
2022/06/08 11:35:50;;;;;;;10.37;3.57;;;;;;;16.49;82.89;100619.13;4984108;28;20026;-68
2022/06/08 11:38:33;;;;;;;8.45;3.60;;;;;;;16.43;84.37;100613.56;4984080;28;20490;-67
2022/06/08 11:41:20;;;;;;;8.63;3.53;;;;;;;16.39;84.48;100608.84;4978134;28;20124;-66
2022/06/08 11:43:47;;;;;;;8.30;3.80;;;;;;;16.29;83.99;100595.97;4981359;28;20081;-67
2022/06/08 11:46:35;;;;;;;8.40;4.20;;;;;;;16.36;83.91;100602.16;4981623;28;20046;-67
2022/06/08 11:49:01;;;;;;;9.18;4.07;;;;;;;16.24;84.66;100598.25;4979718;28;20025;-66